sensor_id;sensor_type;location;lat;lon;timestamp;pressure;altitude;pressure_sealevel;temperature
22322;BMP180;11328;53.928;18.522;2024-01-07T00:00:12;100591.00;;;-1.90
22322;BMP180;11328;53.928;18.522;2024-01-07T00:02:39;100575.00;;;-1.90
22322;BMP180;11328;53.928;18.522;2024-01-07T00:05:07;100590.00;;;-2.00
22322;BMP180;11328;53.928;18.522;2024-01-07T00:07:34;100582.00;;;-1.90
22322;BMP180;11328;53.928;18.522;2024-01-07T00:10:01;100594.00;;;-1.90
22322;BMP180;11328;53.928;18.522;2024-01-07T00:12:28;100586.00;;;-1.80
22322;BMP180;11328;53.928;18.522;2024-01-07T00:14:55;100597.00;;;-1.90
22322;BMP180;11328;53.928;18.522;2024-01-07T00:17:23;100604.00;;;-2.00
22322;BMP180;11328;53.928;18.522;2024-01-07T00:19:50;100596.00;;;-1.90
22322;BMP180;11328;53.928;18.522;2024-01-07T00:22:17;100601.00;;;-1.90
22322;BMP180;11328;53.928;18.522;2024-01-07T00:24:44;100595.00;;;-2.00
22322;BMP180;11328;53.928;18.522;2024-01-07T00:27:11;100598.00;;;-2.20
22322;BMP180;11328;53.928;18.522;2024-01-07T00:29:38;100601.00;;;-2.20
22322;BMP180;11328;53.928;18.522;2024-01-07T00:32:05;100596.00;;;-2.00
22322;BMP180;11328;53.928;18.522;2024-01-07T00:34:32;100599.00;;;-2.00
22322;BMP180;11328;53.928;18.522;2024-01-07T00:36:59;100605.00;;;-1.90
22322;BMP180;11328;53.928;18.522;2024-01-07T00:39:26;100605.00;;;-1.90
22322;BMP180;11328;53.928;18.522;2024-01-07T00:41:53;100615.00;;;-1.80
22322;BMP180;11328;53.928;18.522;2024-01-07T00:44:20;100610.00;;;-1.90
22322;BMP180;11328;53.928;18.522;2024-01-07T00:46:47;100605.00;;;-2.00
22322;BMP180;11328;53.928;18.522;2024-01-07T00:49:15;100601.00;;;-2.00
22322;BMP180;11328;53.928;18.522;2024-01-07T00:51:42;100603.00;;;-1.80
22322;BMP180;11328;53.928;18.522;2024-01-07T00:54:10;100622.00;;;-1.80
22322;BMP180;11328;53.928;18.522;2024-01-07T00:56:36;100617.00;;;-1.90
22322;BMP180;11328;53.928;18.522;2024-01-07T00:59:03;100616.00;;;-2.00
22322;BMP180;11328;53.928;18.522;2024-01-07T01:01:31;100613.00;;;-2.00
22322;BMP180;11328;53.928;18.522;2024-01-07T01:03:58;100603.00;;;-2.20
22322;BMP180;11328;53.928;18.522;2024-01-07T01:06:25;100619.00;;;-2.10
22322;BMP180;11328;53.928;18.522;2024-01-07T01:08:52;100591.00;;;-2.10
22322;BMP180;11328;53.928;18.522;2024-01-07T01:11:19;100613.00;;;-2.20
22322;BMP180;11328;53.928;18.522;2024-01-07T01:13:46;100619.00;;;-2.60
22322;BMP180;11328;53.928;18.522;2024-01-07T01:16:13;100616.00;;;-2.70
22322;BMP180;11328;53.928;18.522;2024-01-07T01:18:40;100621.00;;;-2.80
22322;BMP180;11328;53.928;18.522;2024-01-07T01:21:07;100629.00;;;-2.60
22322;BMP180;11328;53.928;18.522;2024-01-07T01:23:35;100619.00;;;-2.80
22322;BMP180;11328;53.928;18.522;2024-01-07T01:26:01;100629.00;;;-2.90
22322;BMP180;11328;53.928;18.522;2024-01-07T01:28:28;100608.00;;;-2.90
22322;BMP180;11328;53.928;18.522;2024-01-07T01:30:55;100613.00;;;-2.90
22322;BMP180;11328;53.928;18.522;2024-01-07T01:33:22;100615.00;;;-2.90
22322;BMP180;11328;53.928;18.522;2024-01-07T01:35:50;100619.00;;;-2.90
22322;BMP180;11328;53.928;18.522;2024-01-07T01:38:17;100618.00;;;-2.90
22322;BMP180;11328;53.928;18.522;2024-01-07T01:40:44;100624.00;;;-2.90
22322;BMP180;11328;53.928;18.522;2024-01-07T01:43:10;100619.00;;;-2.90
22322;BMP180;11328;53.928;18.522;2024-01-07T01:45:37;100618.00;;;-2.90
22322;BMP180;11328;53.928;18.522;2024-01-07T01:48:05;100617.00;;;-2.90
22322;BMP180;11328;53.928;18.522;2024-01-07T01:50:32;100633.00;;;-2.90
22322;BMP180;11328;53.928;18.522;2024-01-07T01:53:00;100631.00;;;-2.90
22322;BMP180;11328;53.928;18.522;2024-01-07T01:55:27;100633.00;;;-2.80
22322;BMP180;11328;53.928;18.522;2024-01-07T01:57:55;100625.00;;;-2.80
22322;BMP180;11328;53.928;18.522;2024-01-07T02:00:23;100625.00;;;-2.90
22322;BMP180;11328;53.928;18.522;2024-01-07T02:02:50;100633.00;;;-2.90
22322;BMP180;11328;53.928;18.522;2024-01-07T02:05:17;100625.00;;;-2.80
22322;BMP180;11328;53.928;18.522;2024-01-07T02:07:44;100628.00;;;-2.80
22322;BMP180;11328;53.928;18.522;2024-01-07T02:10:11;100637.00;;;-2.80
22322;BMP180;11328;53.928;18.522;2024-01-07T02:12:39;100623.00;;;-2.90
22322;BMP180;11328;53.928;18.522;2024-01-07T02:15:06;100629.00;;;-2.80
22322;BMP180;11328;53.928;18.522;2024-01-07T02:17:33;100633.00;;;-2.80
22322;BMP180;11328;53.928;18.522;2024-01-07T02:20:00;100632.00;;;-2.80
22322;BMP180;11328;53.928;18.522;2024-01-07T02:22:28;100637.00;;;-2.80
22322;BMP180;11328;53.928;18.522;2024-01-07T02:24:55;100636.00;;;-2.90
22322;BMP180;11328;53.928;18.522;2024-01-07T02:27:22;100650.00;;;-2.90
22322;BMP180;11328;53.928;18.522;2024-01-07T02:29:49;100639.00;;;-2.80
22322;BMP180;11328;53.928;18.522;2024-01-07T02:32:16;100640.00;;;-2.70
22322;BMP180;11328;53.928;18.522;2024-01-07T02:34:43;100655.00;;;-2.80
22322;BMP180;11328;53.928;18.522;2024-01-07T02:37:11;100639.00;;;-2.80
22322;BMP180;11328;53.928;18.522;2024-01-07T02:39:38;100631.00;;;-2.90
22322;BMP180;11328;53.928;18.522;2024-01-07T02:42:05;100644.00;;;-2.80
22322;BMP180;11328;53.928;18.522;2024-01-07T02:44:32;100658.00;;;-2.90
22322;BMP180;11328;53.928;18.522;2024-01-07T02:46:59;100647.00;;;-2.80
22322;BMP180;11328;53.928;18.522;2024-01-07T02:49:26;100657.00;;;-2.80
22322;BMP180;11328;53.928;18.522;2024-01-07T02:51:53;100667.00;;;-2.70
22322;BMP180;11328;53.928;18.522;2024-01-07T02:54:20;100656.00;;;-2.80
22322;BMP180;11328;53.928;18.522;2024-01-07T02:56:47;100635.00;;;-2.90
22322;BMP180;11328;53.928;18.522;2024-01-07T02:59:14;100660.00;;;-2.80
22322;BMP180;11328;53.928;18.522;2024-01-07T03:01:41;100647.00;;;-2.90
22322;BMP180;11328;53.928;18.522;2024-01-07T03:04:12;100655.00;;;-2.90
22322;BMP180;11328;53.928;18.522;2024-01-07T03:06:39;100659.00;;;-3.00
22322;BMP180;11328;53.928;18.522;2024-01-07T03:09:07;100646.00;;;-2.90
22322;BMP180;11328;53.928;18.522;2024-01-07T03:11:39;100652.00;;;-3.20
22322;BMP180;11328;53.928;18.522;2024-01-07T03:14:07;100655.00;;;-3.20
22322;BMP180;11328;53.928;18.522;2024-01-07T03:16:34;100622.00;;;-3.00
22322;BMP180;11328;53.928;18.522;2024-01-07T03:19:01;100654.00;;;-2.90
22322;BMP180;11328;53.928;18.522;2024-01-07T03:21:29;100655.00;;;-3.10
22322;BMP180;11328;53.928;18.522;2024-01-07T03:23:56;100656.00;;;-3.00
22322;BMP180;11328;53.928;18.522;2024-01-07T03:26:29;100661.00;;;-3.10
22322;BMP180;11328;53.928;18.522;2024-01-07T03:28:57;100663.00;;;-3.20
22322;BMP180;11328;53.928;18.522;2024-01-07T03:31:26;100656.00;;;-3.40
22322;BMP180;11328;53.928;18.522;2024-01-07T03:33:53;100657.00;;;-3.50
22322;BMP180;11328;53.928;18.522;2024-01-07T03:36:21;100669.00;;;-3.50
22322;BMP180;11328;53.928;18.522;2024-01-07T03:38:48;100660.00;;;-3.70
22322;BMP180;11328;53.928;18.522;2024-01-07T03:41:20;100666.00;;;-3.60
22322;BMP180;11328;53.928;18.522;2024-01-07T03:43:47;100669.00;;;-3.70
22322;BMP180;11328;53.928;18.522;2024-01-07T03:46:16;100664.00;;;-3.80
22322;BMP180;11328;53.928;18.522;2024-01-07T03:48:44;100674.00;;;-3.70
22322;BMP180;11328;53.928;18.522;2024-01-07T03:51:11;100656.00;;;-3.70
22322;BMP180;11328;53.928;18.522;2024-01-07T03:53:38;100669.00;;;-3.70
22322;BMP180;11328;53.928;18.522;2024-01-07T03:56:06;100679.00;;;-3.70
22322;BMP180;11328;53.928;18.522;2024-01-07T03:58:33;100674.00;;;-3.90
22322;BMP180;11328;53.928;18.522;2024-01-07T04:01:01;100681.00;;;-3.90
22322;BMP180;11328;53.928;18.522;2024-01-07T04:03:28;100681.00;;;-3.80
22322;BMP180;11328;53.928;18.522;2024-01-07T04:05:55;100686.00;;;-3.90
22322;BMP180;11328;53.928;18.522;2024-01-07T04:08:22;100679.00;;;-4.00
22322;BMP180;11328;53.928;18.522;2024-01-07T04:10:49;100682.00;;;-4.20
22322;BMP180;11328;53.928;18.522;2024-01-07T04:13:16;100680.00;;;-4.10
22322;BMP180;11328;53.928;18.522;2024-01-07T04:15:43;100688.00;;;-4.20
22322;BMP180;11328;53.928;18.522;2024-01-07T04:18:10;100680.00;;;-4.20
22322;BMP180;11328;53.928;18.522;2024-01-07T04:20:37;100684.00;;;-4.20
22322;BMP180;11328;53.928;18.522;2024-01-07T04:23:04;100680.00;;;-4.20
22322;BMP180;11328;53.928;18.522;2024-01-07T04:25:31;100679.00;;;-4.40
22322;BMP180;11328;53.928;18.522;2024-01-07T04:27:58;100689.00;;;-4.30
22322;BMP180;11328;53.928;18.522;2024-01-07T04:30:25;100690.00;;;-4.30
22322;BMP180;11328;53.928;18.522;2024-01-07T04:32:52;100692.00;;;-4.20
22322;BMP180;11328;53.928;18.522;2024-01-07T04:35:19;100688.00;;;-4.20
22322;BMP180;11328;53.928;18.522;2024-01-07T04:37:46;100693.00;;;-4.30
22322;BMP180;11328;53.928;18.522;2024-01-07T04:40:13;100689.00;;;-4.40
22322;BMP180;11328;53.928;18.522;2024-01-07T04:42:40;100683.00;;;-4.50
22322;BMP180;11328;53.928;18.522;2024-01-07T04:45:07;100681.00;;;-4.50
22322;BMP180;11328;53.928;18.522;2024-01-07T04:47:34;100686.00;;;-4.40
22322;BMP180;11328;53.928;18.522;2024-01-07T04:50:03;100695.00;;;-4.40
22322;BMP180;11328;53.928;18.522;2024-01-07T04:52:30;100698.00;;;-4.40
22322;BMP180;11328;53.928;18.522;2024-01-07T04:54:57;100688.00;;;-4.40
22322;BMP180;11328;53.928;18.522;2024-01-07T04:57:24;100684.00;;;-4.50
22322;BMP180;11328;53.928;18.522;2024-01-07T04:59:52;100689.00;;;-4.40
22322;BMP180;11328;53.928;18.522;2024-01-07T05:02:19;100699.00;;;-4.30
22322;BMP180;11328;53.928;18.522;2024-01-07T05:04:47;100698.00;;;-4.20
22322;BMP180;11328;53.928;18.522;2024-01-07T05:07:14;100702.00;;;-4.30
22322;BMP180;11328;53.928;18.522;2024-01-07T05:09:41;100689.00;;;-4.30
22322;BMP180;11328;53.928;18.522;2024-01-07T05:12:08;100703.00;;;-4.10
22322;BMP180;11328;53.928;18.522;2024-01-07T05:14:35;100696.00;;;-4.20
22322;BMP180;11328;53.928;18.522;2024-01-07T05:17:04;100688.00;;;-4.50
22322;BMP180;11328;53.928;18.522;2024-01-07T05:19:31;100690.00;;;-4.50
22322;BMP180;11328;53.928;18.522;2024-01-07T05:21:58;100686.00;;;-4.40
22322;BMP180;11328;53.928;18.522;2024-01-07T05:24:26;100675.00;;;-4.40
22322;BMP180;11328;53.928;18.522;2024-01-07T05:26:53;100697.00;;;-4.50
22322;BMP180;11328;53.928;18.522;2024-01-07T05:29:20;100699.00;;;-4.50
22322;BMP180;11328;53.928;18.522;2024-01-07T05:31:47;100705.00;;;-4.40
22322;BMP180;11328;53.928;18.522;2024-01-07T05:34:14;100699.00;;;-4.40
22322;BMP180;11328;53.928;18.522;2024-01-07T05:36:41;100701.00;;;-4.40
22322;BMP180;11328;53.928;18.522;2024-01-07T05:39:08;100706.00;;;-4.50
22322;BMP180;11328;53.928;18.522;2024-01-07T05:41:37;100697.00;;;-4.60
22322;BMP180;11328;53.928;18.522;2024-01-07T05:44:07;100708.00;;;-4.60
22322;BMP180;11328;53.928;18.522;2024-01-07T05:46:40;100708.00;;;-4.50
22322;BMP180;11328;53.928;18.522;2024-01-07T05:49:08;100711.00;;;-4.60
22322;BMP180;11328;53.928;18.522;2024-01-07T05:51:41;100709.00;;;-4.60
22322;BMP180;11328;53.928;18.522;2024-01-07T05:54:08;100718.00;;;-4.90
22322;BMP180;11328;53.928;18.522;2024-01-07T05:56:39;100716.00;;;-5.30
22322;BMP180;11328;53.928;18.522;2024-01-07T05:59:09;100708.00;;;-5.60
22322;BMP180;11328;53.928;18.522;2024-01-07T06:01:36;100714.00;;;-6.30
22322;BMP180;11328;53.928;18.522;2024-01-07T06:04:03;100715.00;;;-6.10
22322;BMP180;11328;53.928;18.522;2024-01-07T06:06:30;100719.00;;;-6.30
22322;BMP180;11328;53.928;18.522;2024-01-07T06:08:58;100718.00;;;-6.50
22322;BMP180;11328;53.928;18.522;2024-01-07T06:11:24;100719.00;;;-6.60
22322;BMP180;11328;53.928;18.522;2024-01-07T06:13:51;100711.00;;;-6.80
22322;BMP180;11328;53.928;18.522;2024-01-07T06:16:18;100714.00;;;-7.00
22322;BMP180;11328;53.928;18.522;2024-01-07T06:18:45;100724.00;;;-7.00
22322;BMP180;11328;53.928;18.522;2024-01-07T06:21:13;100728.00;;;-7.00
22322;BMP180;11328;53.928;18.522;2024-01-07T06:23:40;100728.00;;;-7.20
22322;BMP180;11328;53.928;18.522;2024-01-07T06:26:07;100717.00;;;-7.30
22322;BMP180;11328;53.928;18.522;2024-01-07T06:28:34;100723.00;;;-7.30
22322;BMP180;11328;53.928;18.522;2024-01-07T06:31:03;100725.00;;;-7.40
22322;BMP180;11328;53.928;18.522;2024-01-07T06:33:31;100731.00;;;-7.50
22322;BMP180;11328;53.928;18.522;2024-01-07T06:35:58;100740.00;;;-7.50
22322;BMP180;11328;53.928;18.522;2024-01-07T06:38:26;100738.00;;;-7.60
22322;BMP180;11328;53.928;18.522;2024-01-07T06:40:53;100731.00;;;-7.70
22322;BMP180;11328;53.928;18.522;2024-01-07T06:43:30;100614.00;;;-7.70
22322;BMP180;11328;53.928;18.522;2024-01-07T06:45:57;100745.00;;;-7.70
22322;BMP180;11328;53.928;18.522;2024-01-07T06:48:24;100746.00;;;-7.60
22322;BMP180;11328;53.928;18.522;2024-01-07T06:50:51;100741.00;;;-7.70
22322;BMP180;11328;53.928;18.522;2024-01-07T06:53:18;100758.00;;;-7.60
22322;BMP180;11328;53.928;18.522;2024-01-07T06:55:45;100745.00;;;-7.60
22322;BMP180;11328;53.928;18.522;2024-01-07T06:58:12;100743.00;;;-7.50
22322;BMP180;11328;53.928;18.522;2024-01-07T07:00:39;100753.00;;;-7.30
22322;BMP180;11328;53.928;18.522;2024-01-07T07:03:07;100761.00;;;-7.40
22322;BMP180;11328;53.928;18.522;2024-01-07T07:05:35;100759.00;;;-7.30
22322;BMP180;11328;53.928;18.522;2024-01-07T07:08:02;100737.00;;;-7.10
22322;BMP180;11328;53.928;18.522;2024-01-07T07:10:29;100773.00;;;-7.20
22322;BMP180;11328;53.928;18.522;2024-01-07T07:12:58;100765.00;;;-7.50
22322;BMP180;11328;53.928;18.522;2024-01-07T07:15:25;100765.00;;;-7.40
22322;BMP180;11328;53.928;18.522;2024-01-07T07:17:55;100768.00;;;-7.30
22322;BMP180;11328;53.928;18.522;2024-01-07T07:20:22;100758.00;;;-7.30
22322;BMP180;11328;53.928;18.522;2024-01-07T07:22:49;100767.00;;;-7.40
22322;BMP180;11328;53.928;18.522;2024-01-07T07:25:18;100767.00;;;-7.30
22322;BMP180;11328;53.928;18.522;2024-01-07T07:27:45;100776.00;;;-7.30
22322;BMP180;11328;53.928;18.522;2024-01-07T07:30:12;100775.00;;;-7.20
22322;BMP180;11328;53.928;18.522;2024-01-07T07:32:40;100781.00;;;-7.20
22322;BMP180;11328;53.928;18.522;2024-01-07T07:35:12;100788.00;;;-7.10
22322;BMP180;11328;53.928;18.522;2024-01-07T07:37:40;100793.00;;;-7.10
22322;BMP180;11328;53.928;18.522;2024-01-07T07:40:07;100787.00;;;-7.10
22322;BMP180;11328;53.928;18.522;2024-01-07T07:42:34;100792.00;;;-7.20
22322;BMP180;11328;53.928;18.522;2024-01-07T07:45:01;100798.00;;;-7.20
22322;BMP180;11328;53.928;18.522;2024-01-07T07:47:29;100801.00;;;-7.20
22322;BMP180;11328;53.928;18.522;2024-01-07T07:49:57;100764.00;;;-7.10
22322;BMP180;11328;53.928;18.522;2024-01-07T07:52:24;100798.00;;;-7.20
22322;BMP180;11328;53.928;18.522;2024-01-07T07:54:53;100807.00;;;-7.10
22322;BMP180;11328;53.928;18.522;2024-01-07T07:57:21;100765.00;;;-7.10
22322;BMP180;11328;53.928;18.522;2024-01-07T07:59:48;100806.00;;;-7.10
22322;BMP180;11328;53.928;18.522;2024-01-07T08:02:16;100810.00;;;-7.10
22322;BMP180;11328;53.928;18.522;2024-01-07T08:04:43;100811.00;;;-7.00
22322;BMP180;11328;53.928;18.522;2024-01-07T08:07:10;100811.00;;;-7.10
22322;BMP180;11328;53.928;18.522;2024-01-07T08:09:37;100819.00;;;-7.10
22322;BMP180;11328;53.928;18.522;2024-01-07T08:12:06;100816.00;;;-7.30
22322;BMP180;11328;53.928;18.522;2024-01-07T08:14:33;100816.00;;;-7.20
22322;BMP180;11328;53.928;18.522;2024-01-07T08:17:00;100814.00;;;-7.30
22322;BMP180;11328;53.928;18.522;2024-01-07T08:19:27;100828.00;;;-7.30
22322;BMP180;11328;53.928;18.522;2024-01-07T08:21:54;100835.00;;;-7.50
22322;BMP180;11328;53.928;18.522;2024-01-07T08:24:23;100827.00;;;-7.50
22322;BMP180;11328;53.928;18.522;2024-01-07T08:26:50;100830.00;;;-7.20
22322;BMP180;11328;53.928;18.522;2024-01-07T08:29:18;100844.00;;;-7.30
22322;BMP180;11328;53.928;18.522;2024-01-07T08:31:45;100837.00;;;-7.50
22322;BMP180;11328;53.928;18.522;2024-01-07T08:34:13;100846.00;;;-7.20
22322;BMP180;11328;53.928;18.522;2024-01-07T08:36:42;100809.00;;;-7.10
22322;BMP180;11328;53.928;18.522;2024-01-07T08:39:09;100843.00;;;-7.40
22322;BMP180;11328;53.928;18.522;2024-01-07T08:41:35;100852.00;;;-7.30
22322;BMP180;11328;53.928;18.522;2024-01-07T08:44:02;100860.00;;;-7.10
22322;BMP180;11328;53.928;18.522;2024-01-07T08:46:29;100853.00;;;-7.00
22322;BMP180;11328;53.928;18.522;2024-01-07T08:48:57;100855.00;;;-7.00
22322;BMP180;11328;53.928;18.522;2024-01-07T08:51:24;100856.00;;;-6.70
22322;BMP180;11328;53.928;18.522;2024-01-07T08:53:51;100856.00;;;-6.80
22322;BMP180;11328;53.928;18.522;2024-01-07T08:56:18;100852.00;;;-6.90
22322;BMP180;11328;53.928;18.522;2024-01-07T08:58:45;100849.00;;;-7.20
22322;BMP180;11328;53.928;18.522;2024-01-07T09:01:12;100862.00;;;-7.20
22322;BMP180;11328;53.928;18.522;2024-01-07T09:03:41;100852.00;;;-7.30
22322;BMP180;11328;53.928;18.522;2024-01-07T09:06:09;100864.00;;;-7.40
22322;BMP180;11328;53.928;18.522;2024-01-07T09:08:36;100868.00;;;-7.60
22322;BMP180;11328;53.928;18.522;2024-01-07T09:11:06;100877.00;;;-7.40
22322;BMP180;11328;53.928;18.522;2024-01-07T09:13:37;100865.00;;;-7.50
22322;BMP180;11328;53.928;18.522;2024-01-07T09:16:07;100880.00;;;-7.50
22322;BMP180;11328;53.928;18.522;2024-01-07T09:18:39;100878.00;;;-7.40
22322;BMP180;11328;53.928;18.522;2024-01-07T09:21:06;100878.00;;;-7.60
22322;BMP180;11328;53.928;18.522;2024-01-07T09:23:33;100879.00;;;-7.70
22322;BMP180;11328;53.928;18.522;2024-01-07T09:26:02;100874.00;;;-7.70
22322;BMP180;11328;53.928;18.522;2024-01-07T09:28:30;100871.00;;;-7.90
22322;BMP180;11328;53.928;18.522;2024-01-07T09:30:57;100873.00;;;-7.80
22322;BMP180;11328;53.928;18.522;2024-01-07T09:33:24;100864.00;;;-7.80
22322;BMP180;11328;53.928;18.522;2024-01-07T09:35:51;100873.00;;;-7.70
22322;BMP180;11328;53.928;18.522;2024-01-07T09:38:20;100857.00;;;-7.70
22322;BMP180;11328;53.928;18.522;2024-01-07T09:40:47;100864.00;;;-7.70
22322;BMP180;11328;53.928;18.522;2024-01-07T09:43:14;100860.00;;;-7.70
22322;BMP180;11328;53.928;18.522;2024-01-07T09:45:46;100861.00;;;-7.70
22322;BMP180;11328;53.928;18.522;2024-01-07T09:48:14;100854.00;;;-7.70
22322;BMP180;11328;53.928;18.522;2024-01-07T09:50:42;100861.00;;;-7.70
22322;BMP180;11328;53.928;18.522;2024-01-07T09:53:16;100807.00;;;-7.60
22322;BMP180;11328;53.928;18.522;2024-01-07T09:56:12;100854.00;;;-7.60
22322;BMP180;11328;53.928;18.522;2024-01-07T09:58:43;100837.00;;;-7.50
22322;BMP180;11328;53.928;18.522;2024-01-07T10:01:10;100852.00;;;-7.60
22322;BMP180;11328;53.928;18.522;2024-01-07T10:03:38;100851.00;;;-7.50
22322;BMP180;11328;53.928;18.522;2024-01-07T10:06:05;100855.00;;;-7.40
22322;BMP180;11328;53.928;18.522;2024-01-07T10:08:32;100858.00;;;-7.50
22322;BMP180;11328;53.928;18.522;2024-01-07T10:10:59;100858.00;;;-7.80
22322;BMP180;11328;53.928;18.522;2024-01-07T10:13:28;100852.00;;;-7.80
22322;BMP180;11328;53.928;18.522;2024-01-07T10:15:55;100856.00;;;-7.80
22322;BMP180;11328;53.928;18.522;2024-01-07T10:18:22;100850.00;;;-7.70
22322;BMP180;11328;53.928;18.522;2024-01-07T10:20:49;100858.00;;;-7.70
22322;BMP180;11328;53.928;18.522;2024-01-07T10:23:20;100855.00;;;-7.70
22322;BMP180;11328;53.928;18.522;2024-01-07T10:25:47;100853.00;;;-7.80
22322;BMP180;11328;53.928;18.522;2024-01-07T10:28:14;100861.00;;;-7.70
22322;BMP180;11328;53.928;18.522;2024-01-07T10:30:49;100805.00;;;-7.60
22322;BMP180;11328;53.928;18.522;2024-01-07T10:33:17;100861.00;;;-7.80
22322;BMP180;11328;53.928;18.522;2024-01-07T10:35:56;100844.00;;;-7.70
22322;BMP180;11328;53.928;18.522;2024-01-07T10:38:23;100845.00;;;-7.70
22322;BMP180;11328;53.928;18.522;2024-01-07T10:40:54;100850.00;;;-7.60
22322;BMP180;11328;53.928;18.522;2024-01-07T10:43:22;100863.00;;;-7.70
22322;BMP180;11328;53.928;18.522;2024-01-07T10:45:50;100853.00;;;-7.80
22322;BMP180;11328;53.928;18.522;2024-01-07T10:48:18;100843.00;;;-7.70
22322;BMP180;11328;53.928;18.522;2024-01-07T10:50:47;100859.00;;;-7.50
22322;BMP180;11328;53.928;18.522;2024-01-07T10:53:21;100848.00;;;-7.60
22322;BMP180;11328;53.928;18.522;2024-01-07T10:56:03;100864.00;;;-7.70
22322;BMP180;11328;53.928;18.522;2024-01-07T10:58:32;100859.00;;;-7.70
22322;BMP180;11328;53.928;18.522;2024-01-07T11:01:02;100845.00;;;-7.60
22322;BMP180;11328;53.928;18.522;2024-01-07T11:03:55;100870.00;;;-7.50
22322;BMP180;11328;53.928;18.522;2024-01-07T11:06:48;100855.00;;;-7.50
22322;BMP180;11328;53.928;18.522;2024-01-07T11:12:22;100833.00;;;-7.60
22322;BMP180;11328;53.928;18.522;2024-01-07T11:14:49;100850.00;;;-7.60
22322;BMP180;11328;53.928;18.522;2024-01-07T11:20:12;100861.00;;;-7.90
22322;BMP180;11328;53.928;18.522;2024-01-07T11:22:41;100851.00;;;-8.20
22322;BMP180;11328;53.928;18.522;2024-01-07T11:25:29;100848.00;;;-8.20
22322;BMP180;11328;53.928;18.522;2024-01-07T11:28:01;100834.00;;;-8.20
22322;BMP180;11328;53.928;18.522;2024-01-07T11:30:29;100836.00;;;-8.10
22322;BMP180;11328;53.928;18.522;2024-01-07T11:33:00;100848.00;;;-8.30
22322;BMP180;11328;53.928;18.522;2024-01-07T11:36:01;100846.00;;;-8.10
22322;BMP180;11328;53.928;18.522;2024-01-07T11:38:29;100785.00;;;-8.10
22322;BMP180;11328;53.928;18.522;2024-01-07T11:40:57;100855.00;;;-8.00
22322;BMP180;11328;53.928;18.522;2024-01-07T11:43:25;100851.00;;;-7.80
22322;BMP180;11328;53.928;18.522;2024-01-07T11:45:52;100859.00;;;-7.60
22322;BMP180;11328;53.928;18.522;2024-01-07T11:48:21;100837.00;;;-7.60
22322;BMP180;11328;53.928;18.522;2024-01-07T11:50:48;100844.00;;;-7.40
22322;BMP180;11328;53.928;18.522;2024-01-07T11:53:19;100855.00;;;-7.50
22322;BMP180;11328;53.928;18.522;2024-01-07T11:55:46;100859.00;;;-7.70
22322;BMP180;11328;53.928;18.522;2024-01-07T11:58:13;100867.00;;;-7.60
22322;BMP180;11328;53.928;18.522;2024-01-07T12:00:42;100856.00;;;-7.50
22322;BMP180;11328;53.928;18.522;2024-01-07T12:03:09;100854.00;;;-7.70
22322;BMP180;11328;53.928;18.522;2024-01-07T12:05:36;100861.00;;;-7.60
22322;BMP180;11328;53.928;18.522;2024-01-07T12:08:05;100852.00;;;-7.70
22322;BMP180;11328;53.928;18.522;2024-01-07T12:10:33;100856.00;;;-8.00
22322;BMP180;11328;53.928;18.522;2024-01-07T12:13:00;100852.00;;;-7.90
22322;BMP180;11328;53.928;18.522;2024-01-07T12:15:31;100860.00;;;-7.80
22322;BMP180;11328;53.928;18.522;2024-01-07T12:17:59;100854.00;;;-7.70
22322;BMP180;11328;53.928;18.522;2024-01-07T12:20:28;100817.00;;;-7.70
22322;BMP180;11328;53.928;18.522;2024-01-07T12:22:57;100864.00;;;-7.50
22322;BMP180;11328;53.928;18.522;2024-01-07T12:25:24;100864.00;;;-7.60
22322;BMP180;11328;53.928;18.522;2024-01-07T12:27:51;100863.00;;;-7.60
22322;BMP180;11328;53.928;18.522;2024-01-07T12:30:24;100865.00;;;-7.60
22322;BMP180;11328;53.928;18.522;2024-01-07T12:32:52;100873.00;;;-7.50
22322;BMP180;11328;53.928;18.522;2024-01-07T12:35:20;100858.00;;;-7.40
22322;BMP180;11328;53.928;18.522;2024-01-07T12:37:48;100875.00;;;-7.60
22322;BMP180;11328;53.928;18.522;2024-01-07T12:40:16;100880.00;;;-7.60
22322;BMP180;11328;53.928;18.522;2024-01-07T12:42:43;100872.00;;;-7.70
22322;BMP180;11328;53.928;18.522;2024-01-07T12:45:14;100871.00;;;-7.70
22322;BMP180;11328;53.928;18.522;2024-01-07T12:47:42;100868.00;;;-7.60
22322;BMP180;11328;53.928;18.522;2024-01-07T12:50:11;100819.00;;;-7.60
22322;BMP180;11328;53.928;18.522;2024-01-07T12:52:38;100866.00;;;-7.50
22322;BMP180;11328;53.928;18.522;2024-01-07T12:55:08;100874.00;;;-7.70
22322;BMP180;11328;53.928;18.522;2024-01-07T12:57:36;100865.00;;;-7.80
22322;BMP180;11328;53.928;18.522;2024-01-07T13:00:07;100869.00;;;-7.80
22322;BMP180;11328;53.928;18.522;2024-01-07T13:02:34;100868.00;;;-7.80
22322;BMP180;11328;53.928;18.522;2024-01-07T13:05:02;100858.00;;;-7.80
22322;BMP180;11328;53.928;18.522;2024-01-07T13:07:30;100875.00;;;-7.90
22322;BMP180;11328;53.928;18.522;2024-01-07T13:09:58;100880.00;;;-7.90
22322;BMP180;11328;53.928;18.522;2024-01-07T13:12:25;100860.00;;;-8.00
22322;BMP180;11328;53.928;18.522;2024-01-07T13:15:09;100878.00;;;-8.00
22322;BMP180;11328;53.928;18.522;2024-01-07T13:17:37;100877.00;;;-8.00
22322;BMP180;11328;53.928;18.522;2024-01-07T13:20:05;100871.00;;;-7.90
22322;BMP180;11328;53.928;18.522;2024-01-07T13:22:33;100875.00;;;-7.80
22322;BMP180;11328;53.928;18.522;2024-01-07T13:25:01;100873.00;;;-7.80
22322;BMP180;11328;53.928;18.522;2024-01-07T13:27:28;100880.00;;;-7.80
22322;BMP180;11328;53.928;18.522;2024-01-07T13:29:58;100876.00;;;-7.90
22322;BMP180;11328;53.928;18.522;2024-01-07T13:32:25;100891.00;;;-7.90
22322;BMP180;11328;53.928;18.522;2024-01-07T13:34:53;100882.00;;;-7.90
22322;BMP180;11328;53.928;18.522;2024-01-07T13:37:20;100884.00;;;-8.00
22322;BMP180;11328;53.928;18.522;2024-01-07T13:39:47;100897.00;;;-8.00
22322;BMP180;11328;53.928;18.522;2024-01-07T13:42:16;100906.00;;;-7.90
22322;BMP180;11328;53.928;18.522;2024-01-07T13:44:43;100905.00;;;-7.80
22322;BMP180;11328;53.928;18.522;2024-01-07T13:47:14;100903.00;;;-7.90
22322;BMP180;11328;53.928;18.522;2024-01-07T13:49:41;100902.00;;;-7.80
22322;BMP180;11328;53.928;18.522;2024-01-07T13:52:08;100906.00;;;-8.50
22322;BMP180;11328;53.928;18.522;2024-01-07T13:54:39;100915.00;;;-8.00